Weather at Ujae Atoll Airport

Public forecast

Using degrees Celsius for public forecast. Weather courtesy of forecast.io.

Closest aviation weather report (METAR) to Ujae Atoll Airport

Closest report is Bucholz Army Air Field, 117.5 nm (217.7 km) E.

2024/05/26 11:20 (retrieved 16 minutes ago)

PKWA 261120Z AUTO 06014KT 10SM SCT020 SCT027 BKN049 29/25 A2988 RMK AO2 T02850254

Closest aviation forecast (TAF) to Ujae Atoll Airport

Closest forecast is Bucholz Army Air Field, 117.5 nm (217.7 km) E.

2024/05/26 06:42 (retrieved 5 hours ago)

TAF PKWA 260538Z 2606/2706 07015KT P6SM VCSH SCT018 SCT050